Time;durP1;ratioP1;P1;durP2;ratioP2;P2;SDS_P1;SDS_P2;PMS_P1;PMS_P2;Temp;Humidity;BMP_temperature;BMP_pressure;BME280_temperature;BME280_humidity;BME280_pressure;Samples;Min_cycle;Max_cycle;Signal;HPM_P1;HPM_P2
2023/05/20 00:01:53;;;;;;;2.55;1.83;;;20.00;57.80;;;;;;4999774;28;20025;-68
2023/05/20 00:04:18;;;;;;;2.65;2.30;;;20.00;58.00;;;;;;4996520;28;20126;-68
2023/05/20 00:06:44;;;;;;;2.10;1.88;;;20.00;58.00;;;;;;4993413;28;20046;-68
2023/05/20 00:09:09;;;;;;;3.47;2.22;;;20.00;57.80;;;;;;4993204;28;20437;-66
2023/05/20 00:11:35;;;;;;;3.55;2.05;;;20.00;57.90;;;;;;4992757;28;20117;-66
2023/05/20 00:14:00;;;;;;;5.68;2.55;;;20.00;57.80;;;;;;4990352;28;20152;-67
2023/05/20 00:16:26;;;;;;;2.85;1.92;;;20.00;57.80;;;;;;4991088;28;20030;-66
2023/05/20 00:18:52;;;;;;;2.72;2.25;;;20.00;58.00;;;;;;4999149;28;20156;-67
2023/05/20 00:21:17;;;;;;;2.63;2.25;;;20.00;57.90;;;;;;4995205;28;20058;-68
2023/05/20 00:23:43;;;;;;;2.40;2.20;;;20.00;58.00;;;;;;4999436;28;20036;-66
2023/05/20 00:26:09;;;;;;;2.33;2.00;;;20.00;57.90;;;;;;4996944;28;20034;-67
2023/05/20 00:28:35;;;;;;;2.45;1.85;;;20.00;58.00;;;;;;4997099;28;20038;-67
2023/05/20 00:31:00;;;;;;;4.07;2.55;;;20.00;57.90;;;;;;4994754;28;20708;-67
2023/05/20 00:33:26;;;;;;;2.25;1.70;;;19.90;57.80;;;;;;4994276;28;20188;-67
2023/05/20 00:35:51;;;;;;;2.67;1.75;;;20.00;57.90;;;;;;4997368;28;20501;-66
2023/05/20 00:38:17;;;;;;;2.63;1.75;;;20.00;57.90;;;;;;4993444;28;20034;-67
2023/05/20 00:40:43;;;;;;;2.17;1.92;;;20.00;58.00;;;;;;4993105;28;20038;-66
2023/05/20 00:43:08;;;;;;;2.63;2.05;;;20.00;57.90;;;;;;4994700;28;20061;-66
2023/05/20 00:45:35;;;;;;;2.13;1.83;;;19.90;57.90;;;;;;4995970;28;20512;-66
2023/05/20 00:48:02;;;;;;;2.35;2.15;;;19.90;57.90;;;;;;4999323;28;20025;-68
2023/05/20 00:50:28;;;;;;;2.58;2.05;;;19.90;58.00;;;;;;4997304;28;20452;-66
2023/05/20 00:52:54;;;;;;;2.45;2.08;;;19.90;58.50;;;;;;4998381;28;20030;-66
2023/05/20 00:55:20;;;;;;;2.42;2.17;;;20.00;58.00;;;;;;4995410;28;20046;-67
2023/05/20 00:57:48;;;;;;;1.80;1.70;;;19.90;58.00;;;;;;4993313;28;20104;-67
2023/05/20 01:00:14;;;;;;;3.25;2.45;;;20.00;58.10;;;;;;4994690;28;20046;-68
2023/05/20 01:02:39;;;;;;;2.55;2.30;;;19.90;57.90;;;;;;4992835;28;20521;-66
2023/05/20 01:05:05;;;;;;;3.13;2.35;;;19.90;57.90;;;;;;4992997;28;20034;-65
2023/05/20 01:07:31;;;;;;;2.25;1.90;;;19.90;57.90;;;;;;4988691;28;20046;-66
2023/05/20 01:09:57;;;;;;;3.10;2.00;;;19.90;58.00;;;;;;4991624;28;20033;-67
2023/05/20 01:12:29;;;;;;;2.20;1.88;;;19.90;57.90;;;;;;4994125;28;20041;-66
2023/05/20 01:15:07;;;;;;;2.63;2.17;;;19.90;58.00;;;;;;4991575;28;20026;-68
2023/05/20 01:17:37;;;;;;;2.72;2.20;;;19.90;57.90;;;;;;4997614;28;20310;-66
2023/05/20 01:20:06;;;;;;;2.08;1.88;;;19.90;58.00;;;;;;4997472;28;20022;-67
2023/05/20 01:22:31;;;;;;;1.88;1.70;;;19.90;58.20;;;;;;4997398;28;20106;-65
2023/05/20 01:24:57;;;;;;;2.58;1.77;;;19.90;58.00;;;;;;4997219;28;20114;-68
2023/05/20 01:27:23;;;;;;;3.13;2.22;;;19.90;57.90;;;;;;4996406;28;20061;-66
2023/05/20 01:29:50;;;;;;;2.63;2.28;;;19.90;58.10;;;;;;4997984;28;20513;-67
2023/05/20 01:32:30;;;;;;;2.28;2.03;;;19.90;58.10;;;;;;4994142;28;20034;-66
2023/05/20 01:34:58;;;;;;;2.13;2.00;;;19.90;58.20;;;;;;4994730;28;20061;-69
2023/05/20 01:37:25;;;;;;;2.03;1.73;;;19.90;58.00;;;;;;4992209;28;20497;-66
2023/05/20 01:39:52;;;;;;;2.20;1.98;;;19.90;58.10;;;;;;4993001;28;20169;-68
2023/05/20 01:42:19;;;;;;;3.83;2.00;;;19.90;58.00;;;;;;4989575;28;20030;-66
2023/05/20 01:44:44;;;;;;;2.58;1.83;;;19.90;58.00;;;;;;4993065;28;20081;-65
2023/05/20 01:47:10;;;;;;;1.83;1.60;;;19.90;58.20;;;;;;4998658;28;20034;-66
2023/05/20 01:49:35;;;;;;;1.77;1.67;;;19.90;57.90;;;;;;4995888;28;20086;-67
2023/05/20 01:52:01;;;;;;;4.05;2.17;;;19.90;58.10;;;;;;4998452;28;20416;-68
2023/05/20 01:54:26;;;;;;;2.03;1.83;;;19.90;58.10;;;;;;4999687;28;20042;-67
2023/05/20 01:56:52;;;;;;;2.30;2.10;;;19.90;58.00;;;;;;4996195;28;20429;-66
2023/05/20 01:59:18;;;;;;;2.17;1.98;;;19.90;58.00;;;;;;4993502;28;20030;-67
2023/05/20 02:01:43;;;;;;;2.40;2.00;;;19.90;58.00;;;;;;4992685;28;20500;-67
2023/05/20 02:04:09;;;;;;;2.42;2.22;;;19.90;58.10;;;;;;4993757;28;20022;-66
2023/05/20 02:06:34;;;;;;;2.70;2.13;;;19.90;58.00;;;;;;4997492;28;20039;-67
2023/05/20 02:09:00;;;;;;;3.63;2.35;;;19.90;57.90;;;;;;4995580;28;20034;-66
2023/05/20 02:11:25;;;;;;;2.10;1.90;;;19.80;57.90;;;;;;4995625;28;20545;-67
2023/05/20 02:13:51;;;;;;;2.30;2.05;;;19.90;58.10;;;;;;4993726;28;20053;-66
2023/05/20 02:16:17;;;;;;;2.53;1.80;;;19.90;58.60;;;;;;5000997;28;20405;-64
2023/05/20 02:18:42;;;;;;;2.95;2.22;;;19.90;58.10;;;;;;4999947;28;20128;-66
2023/05/20 02:21:08;;;;;;;1.98;1.77;;;19.80;58.10;;;;;;4998913;28;20033;-66
2023/05/20 02:23:34;;;;;;;2.40;2.15;;;19.80;57.90;;;;;;5000908;28;20031;-68
2023/05/20 02:25:59;;;;;;;2.22;2.03;;;19.80;58.10;;;;;;4998874;28;20110;-66
2023/05/20 02:28:25;;;;;;;2.78;2.03;;;19.90;58.20;;;;;;4997586;28;20068;-65
2023/05/20 02:30:50;;;;;;;2.60;2.08;;;19.80;58.10;;;;;;4995438;28;20476;-66
2023/05/20 02:33:17;;;;;;;2.13;1.95;;;19.80;58.10;;;;;;4994615;28;20100;-67
2023/05/20 02:35:42;;;;;;;2.22;1.90;;;19.80;58.10;;;;;;4995253;28;20069;-68
2023/05/20 02:38:07;;;;;;;2.38;2.17;;;19.80;58.00;;;;;;4993225;28;20035;-68
2023/05/20 02:40:33;;;;;;;2.67;2.17;;;19.80;58.00;;;;;;5000137;28;20029;-65
2023/05/20 02:42:59;;;;;;;1.98;1.70;;;19.80;58.00;;;;;;4996329;28;20034;-67
2023/05/20 02:45:25;;;;;;;2.88;2.40;;;19.80;58.10;;;;;;4998956;28;20033;-66
2023/05/20 02:47:50;;;;;;;1.88;1.70;;;19.80;58.10;;;;;;5002118;28;20079;-66
2023/05/20 02:50:16;;;;;;;2.80;2.40;;;19.80;58.20;;;;;;4998643;28;20196;-65
2023/05/20 02:52:41;;;;;;;2.78;2.40;;;19.80;58.10;;;;;;5001171;28;20133;-67
2023/05/20 02:55:07;;;;;;;1.95;1.75;;;19.80;58.10;;;;;;4998078;28;20046;-69
2023/05/20 02:57:36;;;;;;;2.10;1.90;;;19.80;58.10;;;;;;4997573;28;20029;-68
2023/05/20 03:00:04;;;;;;;2.55;2.08;;;19.80;58.20;;;;;;4995827;28;20030;-66
2023/05/20 03:02:29;;;;;;;2.63;2.42;;;19.80;58.10;;;;;;4995790;28;20030;-66
2023/05/20 03:04:55;;;;;;;2.55;2.22;;;19.80;58.30;;;;;;4992236;28;20033;-66
2023/05/20 03:07:21;;;;;;;2.70;2.22;;;19.80;58.10;;;;;;4995600;28;20659;-66
2023/05/20 03:09:46;;;;;;;2.45;2.10;;;19.80;58.10;;;;;;4995671;28;20041;-65
2023/05/20 03:12:12;;;;;;;2.63;2.22;;;19.80;58.20;;;;;;4989105;28;20031;-66
2023/05/20 03:14:37;;;;;;;2.60;2.15;;;19.80;58.10;;;;;;4998389;28;20054;-67
2023/05/20 03:17:03;;;;;;;2.33;1.90;;;19.80;58.20;;;;;;5000072;28;20037;-67
2023/05/20 03:19:28;;;;;;;2.30;2.10;;;19.80;58.30;;;;;;4997212;28;20356;-65
2023/05/20 03:21:54;;;;;;;2.58;2.35;;;19.80;58.30;;;;;;4998199;28;20022;-66
2023/05/20 03:24:22;;;;;;;2.13;1.92;;;19.80;58.20;;;;;;4996143;28;20441;-65
2023/05/20 03:26:47;;;;;;;2.80;2.40;;;19.80;58.40;;;;;;4997324;28;20116;-65
2023/05/20 03:29:13;;;;;;;2.55;2.35;;;19.80;58.10;;;;;;4994368;28;20058;-65
2023/05/20 03:31:38;;;;;;;2.47;2.28;;;19.80;58.10;;;;;;4993649;28;20030;-66
2023/05/20 03:34:04;;;;;;;2.75;2.45;;;19.80;58.10;;;;;;5008540;28;20030;-67
2023/05/20 03:36:30;;;;;;;3.00;2.47;;;19.80;58.30;;;;;;4995847;28;20347;-66
2023/05/20 03:38:55;;;;;;;2.63;2.42;;;19.80;58.20;;;;;;4995340;28;20100;-66
2023/05/20 03:41:21;;;;;;;2.78;2.28;;;19.80;58.10;;;;;;4994319;28;20042;-66
2023/05/20 03:43:47;;;;;;;2.97;2.13;;;19.80;58.30;;;;;;4998887;28;21158;-65
2023/05/20 03:46:12;;;;;;;2.80;2.45;;;19.70;59.00;;;;;;4998412;28;20041;-67
2023/05/20 03:48:38;;;;;;;2.78;2.58;;;19.80;58.30;;;;;;4997916;28;20100;-67
2023/05/20 03:51:03;;;;;;;3.03;2.40;;;19.70;58.10;;;;;;4997885;28;20028;-65
2023/05/20 03:53:29;;;;;;;2.83;2.40;;;19.70;58.10;;;;;;4996810;28;20038;-67
2023/05/20 03:55:54;;;;;;;3.58;2.80;;;19.80;58.20;;;;;;4998779;28;20443;-68
2023/05/20 03:58:21;;;;;;;2.83;2.60;;;19.80;58.90;;;;;;4995709;28;20077;-66
2023/05/20 04:00:47;;;;;;;2.47;2.28;;;19.70;58.20;;;;;;4991729;28;20309;-65
2023/05/20 04:03:13;;;;;;;2.88;2.58;;;19.80;58.40;;;;;;4992366;28;20091;-67
2023/05/20 04:05:38;;;;;;;2.65;2.45;;;19.80;58.10;;;;;;4992556;28;20221;-66
2023/05/20 04:08:04;;;;;;;2.35;2.15;;;19.80;58.30;;;;;;4993748;28;20104;-68
2023/05/20 04:10:32;;;;;;;2.92;2.50;;;19.80;58.30;;;;;;4992794;28;20041;-67
2023/05/20 04:12:58;;;;;;;2.90;2.58;;;19.80;58.20;;;;;;5000274;28;20037;-68
2023/05/20 04:15:24;;;;;;;2.72;2.33;;;19.70;58.10;;;;;;4998776;28;20042;-66
2023/05/20 04:17:51;;;;;;;2.97;2.67;;;19.80;58.20;;;;;;4999647;28;20029;-66
2023/05/20 04:20:17;;;;;;;2.58;2.30;;;19.80;58.30;;;;;;4998416;28;20049;-66
2023/05/20 04:22:43;;;;;;;2.72;2.40;;;19.70;58.10;;;;;;4998639;28;20247;-65
2023/05/20 04:25:09;;;;;;;3.28;2.53;;;19.70;58.10;;;;;;4998085;28;20092;-65
2023/05/20 04:27:36;;;;;;;3.05;2.38;;;19.70;58.30;;;;;;4993200;28;20425;-65
2023/05/20 04:30:02;;;;;;;3.63;2.70;;;19.70;58.10;;;;;;4993945;28;20732;-66
2023/05/20 04:32:28;;;;;;;3.15;2.85;;;19.80;58.20;;;;;;4991940;28;20080;-66
2023/05/20 04:34:54;;;;;;;2.60;2.40;;;19.70;58.20;;;;;;4996559;28;20096;-68
2023/05/20 04:37:21;;;;;;;2.58;2.38;;;19.70;58.10;;;;;;4998356;28;20068;-66
2023/05/20 04:39:48;;;;;;;2.75;2.55;;;19.80;58.30;;;;;;4990806;28;20121;-66
2023/05/20 04:42:14;;;;;;;2.50;2.20;;;19.70;58.10;;;;;;4995134;28;20041;-67
2023/05/20 04:44:40;;;;;;;3.08;2.78;;;19.70;58.20;;;;;;4996169;28;20026;-67
2023/05/20 04:47:08;;;;;;;2.78;2.53;;;19.70;58.30;;;;;;4994950;28;21970;-65
2023/05/20 04:49:34;;;;;;;2.70;2.50;;;19.70;58.30;;;;;;4996572;28;20534;-65
2023/05/20 04:51:59;;;;;;;2.97;2.67;;;19.70;58.30;;;;;;4997398;28;20026;-65
2023/05/20 04:54:25;;;;;;;2.70;2.40;;;19.70;58.30;;;;;;4994754;28;20040;-66
2023/05/20 04:56:51;;;;;;;2.85;2.65;;;19.70;58.20;;;;;;4993209;28;20075;-67
2023/05/20 04:59:16;;;;;;;3.42;2.70;;;19.70;58.20;;;;;;4992962;28;20045;-65
2023/05/20 05:01:42;;;;;;;2.53;2.33;;;19.70;58.20;;;;;;4989596;28;20402;-65
2023/05/20 05:04:07;;;;;;;2.83;2.63;;;19.70;58.30;;;;;;4991224;28;20065;-66
2023/05/20 05:06:33;;;;;;;2.75;2.55;;;19.70;58.20;;;;;;4993583;28;20046;-67
2023/05/20 05:08:58;;;;;;;2.67;2.47;;;19.70;58.30;;;;;;4994227;28;20203;-65
2023/05/20 05:11:25;;;;;;;2.97;2.67;;;19.70;58.10;;;;;;4996614;28;20330;-65
2023/05/20 05:13:50;;;;;;;3.03;2.47;;;19.70;58.20;;;;;;4996730;28;20643;-65
2023/05/20 05:16:16;;;;;;;3.30;3.00;;;19.70;58.10;;;;;;4995167;28;20030;-65
2023/05/20 05:18:41;;;;;;;3.00;2.70;;;19.70;58.20;;;;;;4995408;28;20045;-67
2023/05/20 05:21:07;;;;;;;2.97;2.70;;;19.70;58.30;;;;;;4994701;28;20042;-66
2023/05/20 05:23:32;;;;;;;3.20;2.70;;;19.70;58.30;;;;;;4993656;28;20034;-65
2023/05/20 05:25:58;;;;;;;2.65;2.42;;;19.70;58.20;;;;;;4992730;28;20042;-66
2023/05/20 05:28:24;;;;;;;2.70;2.50;;;19.70;58.30;;;;;;4991131;28;20042;-66
2023/05/20 05:30:50;;;;;;;2.67;2.47;;;19.70;58.20;;;;;;4989366;28;20517;-65
2023/05/20 05:33:16;;;;;;;2.58;2.38;;;19.70;58.30;;;;;;4988868;28;20464;-66
2023/05/20 05:35:42;;;;;;;3.28;2.97;;;19.70;58.10;;;;;;4993956;28;20227;-67
2023/05/20 05:38:08;;;;;;;3.50;3.10;;;19.70;58.90;;;;;;4992377;28;20636;-64
2023/05/20 05:40:34;;;;;;;3.20;2.90;;;19.70;58.30;;;;;;4999290;28;20334;-66
2023/05/20 05:42:59;;;;;;;3.22;2.75;;;19.70;58.10;;;;;;5001664;28;20030;-66
2023/05/20 05:45:25;;;;;;;2.72;2.53;;;19.70;58.30;;;;;;4999331;28;20715;-66
2023/05/20 05:47:50;;;;;;;2.90;2.60;;;19.70;58.10;;;;;;5000513;28;20034;-66
2023/05/20 05:50:16;;;;;;;3.40;3.10;;;19.70;58.30;;;;;;4999442;28;20504;-67
2023/05/20 05:52:41;;;;;;;3.53;2.60;;;19.70;58.10;;;;;;4999166;28;20307;-66
2023/05/20 05:55:08;;;;;;;2.88;2.40;;;19.70;58.20;;;;;;5000682;28;20639;-66
2023/05/20 05:57:34;;;;;;;3.05;2.78;;;19.70;58.30;;;;;;4993887;28;20120;-65
2023/05/20 06:00:00;;;;;;;2.97;2.70;;;19.70;58.10;;;;;;4996156;28;20034;-65
2023/05/20 06:02:26;;;;;;;2.67;2.47;;;19.80;58.20;;;;;;4993115;28;20031;-65
2023/05/20 06:04:51;;;;;;;3.20;2.90;;;19.70;58.10;;;;;;4999209;28;20037;-66
2023/05/20 06:07:17;;;;;;;3.10;2.80;;;19.70;58.10;;;;;;4993995;28;20448;-65
2023/05/20 06:09:43;;;;;;;2.65;2.45;;;19.70;58.30;;;;;;4995758;28;20493;-65
2023/05/20 06:12:08;;;;;;;3.10;2.72;;;19.70;58.20;;;;;;5000950;28;20032;-66
2023/05/20 06:14:34;;;;;;;3.35;3.05;;;19.70;58.10;;;;;;4998206;28;20098;-66
2023/05/20 06:17:00;;;;;;;3.30;2.95;;;19.70;58.30;;;;;;4999881;28;20030;-67
2023/05/20 06:19:26;;;;;;;3.17;2.88;;;19.80;58.10;;;;;;4998973;28;20034;-66
2023/05/20 06:21:51;;;;;;;2.97;2.63;;;19.70;58.30;;;;;;4997273;28;20045;-65
2023/05/20 06:24:17;;;;;;;3.00;2.70;;;19.70;58.40;;;;;;4996253;28;20049;-66
2023/05/20 06:26:44;;;;;;;3.03;2.78;;;19.80;58.40;;;;;;4994206;28;20057;-64
2023/05/20 06:29:10;;;;;;;3.70;2.67;;;19.80;58.60;;;;;;4994592;28;20041;-64
2023/05/20 06:31:36;;;;;;;3.30;2.90;;;19.80;58.50;;;;;;4994338;28;20038;-64
2023/05/20 06:34:01;;;;;;;3.90;2.78;;;19.70;58.40;;;;;;4998239;28;20069;-69
2023/05/20 06:36:27;;;;;;;3.70;3.38;;;19.80;58.40;;;;;;4994409;28;20034;-68
2023/05/20 06:38:53;;;;;;;3.70;3.10;;;19.80;58.60;;;;;;4997204;28;20404;-65
2023/05/20 06:41:18;;;;;;;4.35;2.90;;;19.80;58.60;;;;;;4997510;28;20069;-69
2023/05/20 06:43:44;;;;;;;3.25;2.95;;;19.80;58.50;;;;;;4999271;28;20099;-70
2023/05/20 06:46:09;;;;;;;3.63;3.08;;;19.80;58.60;;;;;;4999876;28;20033;-66
2023/05/20 06:48:35;;;;;;;5.10;3.40;;;19.80;58.40;;;;;;5000266;28;20393;-66
2023/05/20 06:51:00;;;;;;;3.63;3.08;;;19.70;58.30;;;;;;4996350;28;20022;-68
2023/05/20 06:53:26;;;;;;;3.10;2.80;;;19.80;58.80;;;;;;4995719;28;20038;-68
2023/05/20 06:55:54;;;;;;;4.25;3.38;;;19.80;59.00;;;;;;4995645;28;20038;-67
2023/05/20 06:58:20;;;;;;;4.28;3.00;;;19.70;58.80;;;;;;4992309;28;20034;-65
2023/05/20 07:00:46;;;;;;;3.92;2.95;;;19.80;58.70;;;;;;4994849;28;20038;-72
2023/05/20 07:03:11;;;;;;;3.65;3.17;;;19.80;58.80;;;;;;4996063;28;20030;-69
2023/05/20 07:05:37;;;;;;;3.28;2.97;;;19.80;58.70;;;;;;4995866;28;20547;-70
2023/05/20 07:08:02;;;;;;;5.07;3.60;;;19.80;58.80;;;;;;4996776;28;20030;-70
2023/05/20 07:10:28;;;;;;;4.70;3.33;;;19.70;58.70;;;;;;4997710;28;20057;-69
2023/05/20 07:12:54;;;;;;;7.00;3.08;;;19.70;58.60;;;;;;5000457;28;20370;-68
2023/05/20 07:15:19;;;;;;;3.47;3.05;;;19.80;58.70;;;;;;4998397;28;20088;-68
2023/05/20 07:17:45;;;;;;;4.07;3.03;;;19.80;58.60;;;;;;4997963;28;20038;-66
2023/05/20 07:20:10;;;;;;;3.40;3.10;;;19.80;58.60;;;;;;4998814;28;20037;-68
2023/05/20 07:22:36;;;;;;;5.00;3.58;;;19.80;58.60;;;;;;4994268;28;20079;-72
2023/05/20 07:25:02;;;;;;;5.22;3.83;;;19.80;58.60;;;;;;4993754;28;20041;-67
2023/05/20 07:27:27;;;;;;;4.75;3.95;;;19.80;58.50;;;;;;4989774;28;20031;-67
2023/05/20 07:29:53;;;;;;;3.35;3.00;;;19.80;58.50;;;;;;4990892;28;20500;-67
2023/05/20 07:32:18;;;;;;;3.58;3.22;;;19.70;58.40;;;;;;4996335;28;20107;-69
2023/05/20 07:34:44;;;;;;;4.13;3.65;;;19.80;58.60;;;;;;5001095;28;20066;-68
2023/05/20 07:37:11;;;;;;;3.65;3.30;;;19.80;58.80;;;;;;5000714;28;20017;-67
2023/05/20 07:39:37;;;;;;;5.80;4.10;;;19.80;58.60;;;;;;4998196;28;20433;-67
2023/05/20 07:42:02;;;;;;;5.20;3.88;;;19.80;58.60;;;;;;4998811;28;20036;-68
2023/05/20 07:44:28;;;;;;;4.95;4.30;;;19.80;58.60;;;;;;4997127;28;20034;-69
2023/05/20 07:46:54;;;;;;;5.38;4.30;;;19.80;58.70;;;;;;4996357;28;20026;-68
2023/05/20 07:49:20;;;;;;;5.90;4.88;;;19.80;58.60;;;;;;4995033;28;20040;-67
2023/05/20 07:51:45;;;;;;;7.00;5.25;;;19.80;58.80;;;;;;4992450;28;20696;-68
2023/05/20 07:54:11;;;;;;;7.57;4.50;;;19.80;58.90;;;;;;4992869;28;20414;-66
2023/05/20 07:56:37;;;;;;;7.10;5.07;;;19.80;58.80;;;;;;4992461;28;20045;-70
2023/05/20 07:59:02;;;;;;;6.90;4.95;;;19.80;58.70;;;;;;4992639;28;20030;-66
2023/05/20 08:01:28;;;;;;;8.70;5.85;;;19.80;58.90;;;;;;4993175;28;20034;-66
2023/05/20 08:03:54;;;;;;;8.55;6.28;;;19.80;59.00;;;;;;4991751;28;20036;-65
2023/05/20 08:06:20;;;;;;;12.20;6.60;;;19.80;59.00;;;;;;4995989;28;20448;-70
2023/05/20 08:08:46;;;;;;;8.75;6.15;;;19.80;59.00;;;;;;4998101;28;20277;-68
2023/05/20 08:11:12;;;;;;;8.98;6.20;;;19.80;59.00;;;;;;4997387;28;20038;-67
2023/05/20 08:13:38;;;;;;;9.10;6.57;;;19.80;59.10;;;;;;4995793;28;20076;-68
2023/05/20 08:16:04;;;;;;;11.27;7.80;;;19.80;59.20;;;;;;4995495;28;20065;-66
2023/05/20 08:18:31;;;;;;;9.00;5.93;;;19.80;59.10;;;;;;4992597;28;20044;-70
2023/05/20 08:20:57;;;;;;;9.30;6.57;;;19.80;59.10;;;;;;4991354;28;20065;-66
2023/05/20 08:23:23;;;;;;;10.85;7.50;;;19.80;59.10;;;;;;4989842;28;20064;-67
2023/05/20 08:25:49;;;;;;;11.45;7.38;;;19.80;59.10;;;;;;4990487;28;20527;-68
2023/05/20 08:28:14;;;;;;;8.13;6.53;;;19.80;59.30;;;;;;4992606;28;20034;-67
2023/05/20 08:30:40;;;;;;;9.40;6.65;;;19.80;59.00;;;;;;4990281;28;20041;-69
2023/05/20 08:33:06;;;;;;;14.77;7.97;;;19.80;59.10;;;;;;4989993;28;20124;-69
2023/05/20 08:35:32;;;;;;;10.25;7.75;;;19.80;59.00;;;;;;4995770;28;20585;-68
2023/05/20 08:37:57;;;;;;;11.50;7.47;;;19.80;59.20;;;;;;4998891;28;20121;-68
2023/05/20 08:40:23;;;;;;;11.90;7.13;;;19.90;59.00;;;;;;4996404;28;20026;-67
2023/05/20 08:42:53;;;;;;;10.88;6.97;;;19.80;59.20;;;;;;4997797;28;20129;-69
2023/05/20 08:45:20;;;;;;;9.00;7.30;;;19.80;59.00;;;;;;4997594;28;20042;-69
2023/05/20 08:47:46;;;;;;;11.20;7.68;;;19.80;59.10;;;;;;4994569;28;20057;-67
2023/05/20 08:50:13;;;;;;;12.57;8.10;;;19.80;59.00;;;;;;4993154;28;20644;-67
2023/05/20 08:52:45;;;;;;;10.55;7.63;;;19.90;59.20;;;;;;4990211;28;20413;-68
2023/05/20 08:55:15;;;;;;;14.82;7.97;;;19.80;59.10;;;;;;4989472;28;20048;-69
2023/05/20 08:57:44;;;;;;;12.93;8.13;;;19.80;59.10;;;;;;5007724;28;20042;-69
2023/05/20 09:00:12;;;;;;;9.10;7.68;;;19.80;59.20;;;;;;4988809;28;20463;-67
2023/05/20 09:02:38;;;;;;;11.65;8.25;;;19.80;59.10;;;;;;4995382;28;20130;-68
2023/05/20 09:05:04;;;;;;;10.13;8.10;;;19.80;59.00;;;;;;5001068;28;20044;-67
2023/05/20 09:07:30;;;;;;;10.63;7.50;;;19.80;59.00;;;;;;4996889;28;20397;-66
2023/05/20 09:09:57;;;;;;;11.05;7.95;;;19.80;58.90;;;;;;5004402;28;20026;-68
2023/05/20 09:12:22;;;;;;;10.00;7.85;;;19.80;59.00;;;;;;5003054;28;20540;-67
2023/05/20 09:14:48;;;;;;;10.55;8.38;;;19.80;59.10;;;;;;4999734;28;20165;-67
2023/05/20 09:17:14;;;;;;;9.50;7.47;;;19.80;59.10;;;;;;4999391;28;20579;-67
2023/05/20 09:19:40;;;;;;;10.32;7.75;;;19.80;59.00;;;;;;4994628;28;20038;-68
2023/05/20 09:22:06;;;;;;;11.05;8.45;;;19.80;59.00;;;;;;5001266;28;20034;-67
2023/05/20 09:24:31;;;;;;;9.45;8.23;;;19.80;59.00;;;;;;4993440;28;20092;-69
2023/05/20 09:26:57;;;;;;;9.00;7.60;;;19.80;58.90;;;;;;5012959;28;20544;-66
2023/05/20 09:29:23;;;;;;;10.20;8.63;;;19.80;59.00;;;;;;4992384;28;20038;-67
2023/05/20 09:31:50;;;;;;;10.63;7.82;;;19.80;58.90;;;;;;5002180;28;20057;-67
2023/05/20 09:34:16;;;;;;;9.95;7.63;;;19.80;58.90;;;;;;4999494;28;20539;-66
2023/05/20 09:36:43;;;;;;;9.65;8.02;;;19.80;58.90;;;;;;4998276;28;20042;-65
2023/05/20 09:39:13;;;;;;;10.57;7.80;;;19.80;58.80;;;;;;5000836;28;20042;-67
2023/05/20 09:42:04;;;;;;;10.18;7.97;;;19.80;58.90;;;;;;5000120;28;20030;-69
2023/05/20 09:44:32;;;;;;;8.65;7.63;;;19.80;58.90;;;;;;4991899;28;20396;-68
2023/05/20 09:46:58;;;;;;;9.07;7.65;;;19.80;59.00;;;;;;4997886;28;20061;-68
2023/05/20 09:49:25;;;;;;;9.52;8.52;;;19.80;58.80;;;;;;4996565;28;20540;-67
2023/05/20 09:51:52;;;;;;;8.70;7.35;;;19.80;58.90;;;;;;4992684;28;20030;-69
2023/05/20 09:54:18;;;;;;;9.07;8.18;;;19.80;58.90;;;;;;4998488;28;20067;-66
2023/05/20 09:56:46;;;;;;;9.95;8.15;;;19.80;58.90;;;;;;4993771;28;20038;-67
2023/05/20 09:59:15;;;;;;;8.77;7.35;;;19.80;58.90;;;;;;4997669;28;20528;-67
2023/05/20 10:01:41;;;;;;;10.73;7.53;;;19.80;58.90;;;;;;5001158;28;20045;-69
2023/05/20 10:04:08;;;;;;;10.07;8.07;;;19.80;58.90;;;;;;5001404;28;20030;-67
2023/05/20 10:07:02;;;;;;;9.68;7.63;;;19.80;58.90;;;;;;4999829;28;20041;-69
2023/05/20 10:09:36;;;;;;;8.30;7.53;;;19.80;58.80;;;;;;4986012;28;20023;-67
2023/05/20 10:12:36;;;;;;;9.32;7.35;;;19.80;58.90;;;;;;5000563;28;20124;-69
2023/05/20 10:15:20;;;;;;;10.10;7.35;;;19.80;58.90;;;;;;4996167;28;20509;-69
2023/05/20 10:18:04;;;;;;;8.18;7.25;;;19.80;59.00;;;;;;4996987;28;20096;-67
2023/05/20 10:20:30;;;;;;;8.40;7.20;;;19.80;58.90;;;;;;4995521;28;20042;-71
2023/05/20 10:22:57;;;;;;;8.30;7.47;;;19.80;58.90;;;;;;4995272;28;20043;-71
2023/05/20 10:25:27;;;;;;;10.07;7.80;;;19.80;58.90;;;;;;5006107;28;20427;-67
2023/05/20 10:28:09;;;;;;;7.85;6.88;;;19.80;59.00;;;;;;4958537;28;20488;-67
2023/05/20 10:30:34;;;;;;;8.55;7.15;;;19.80;58.80;;;;;;5001793;28;20121;-66
2023/05/20 10:33:04;;;;;;;10.30;7.75;;;19.80;59.00;;;;;;4998771;28;20124;-70
2023/05/20 10:35:30;;;;;;;8.95;7.78;;;19.80;59.00;;;;;;4998991;28;20037;-67
2023/05/20 10:38:09;;;;;;;8.65;7.05;;;19.80;59.60;;;;;;5000323;28;20037;-67
2023/05/20 10:40:34;;;;;;;7.90;6.95;;;19.80;59.10;;;;;;4998883;28;20555;-65
2023/05/20 10:43:09;;;;;;;10.00;8.43;;;19.80;59.20;;;;;;4996742;28;20038;-68
2023/05/20 10:45:36;;;;;;;9.43;7.63;;;19.80;59.20;;;;;;4996433;28;20026;-66
2023/05/20 10:48:01;;;;;;;8.77;7.45;;;19.80;59.20;;;;;;4997186;28;20335;-64
2023/05/20 10:50:33;;;;;;;10.77;7.63;;;19.80;59.20;;;;;;4995432;28;20157;-67
2023/05/20 10:53:04;;;;;;;12.05;7.45;;;19.80;59.20;;;;;;4994946;28;20460;-65
2023/05/20 10:55:36;;;;;;;8.60;7.70;;;19.80;59.20;;;;;;4992467;28;20038;-67
2023/05/20 10:58:02;;;;;;;8.38;7.50;;;19.80;59.30;;;;;;5001017;28;20568;-68
2023/05/20 11:00:28;;;;;;;7.82;7.03;;;19.80;59.10;;;;;;5001402;28;20520;-68
2023/05/20 11:02:54;;;;;;;8.00;7.13;;;19.80;59.20;;;;;;4999578;28;20030;-68
2023/05/20 11:05:21;;;;;;;9.70;8.27;;;19.80;59.10;;;;;;4998764;28;20095;-67
2023/05/20 11:07:46;;;;;;;8.63;7.20;;;19.80;59.20;;;;;;4996804;28;20026;-68
2023/05/20 11:10:12;;;;;;;8.90;7.45;;;19.80;59.20;;;;;;4997202;28;20445;-67
2023/05/20 11:12:38;;;;;;;9.48;7.40;;;19.80;59.20;;;;;;4994507;28;20035;-68
2023/05/20 11:15:04;;;;;;;11.70;7.85;;;19.80;59.10;;;;;;4999311;28;20054;-66
2023/05/20 11:17:30;;;;;;;8.32;7.53;;;19.80;59.70;;;;;;4997018;28;20085;-69
2023/05/20 11:19:59;;;;;;;8.32;7.53;;;19.80;59.20;;;;;;4996900;28;20038;-70
2023/05/20 11:22:25;;;;;;;8.73;7.82;;;19.80;59.10;;;;;;4993601;28;20057;-65
2023/05/20 11:24:51;;;;;;;9.35;8.35;;;19.80;59.20;;;;;;4993190;28;20034;-70
2023/05/20 11:27:17;;;;;;;8.55;7.70;;;19.80;59.10;;;;;;5002657;28;20034;-69
2023/05/20 11:29:42;;;;;;;9.27;8.13;;;19.80;59.10;;;;;;5000376;28;20033;-67
2023/05/20 11:32:08;;;;;;;9.77;7.88;;;19.80;59.20;;;;;;5000435;28;20022;-67
2023/05/20 11:34:35;;;;;;;17.73;12.85;;;19.80;59.60;;;;;;4997267;28;20409;-67
2023/05/20 11:37:01;;;;;;;17.33;13.63;;;19.90;59.90;;;;;;4997989;28;20053;-65
2023/05/20 11:39:29;;;;;;;18.08;13.20;;;19.90;60.60;;;;;;4997232;28;20498;-65
2023/05/20 11:41:54;;;;;;;17.30;12.50;;;19.90;61.70;;;;;;4997132;28;20077;-67
2023/05/20 11:44:20;;;;;;;20.70;13.20;;;20.00;61.70;;;;;;4993635;28;20124;-65
2023/05/20 11:46:47;;;;;;;18.02;13.82;;;20.00;61.50;;;;;;4998186;28;20478;-70
2023/05/20 11:49:13;;;;;;;16.73;12.98;;;20.00;61.20;;;;;;5001494;28;20114;-70
2023/05/20 11:51:39;;;;;;;22.75;12.75;;;20.00;61.50;;;;;;4996887;28;20405;-66
2023/05/20 11:54:06;;;;;;;20.08;13.25;;;20.00;61.30;;;;;;4996671;28;20026;-66
2023/05/20 11:56:40;;;;;;;18.67;12.63;;;20.00;61.50;;;;;;5000862;28;20038;-65
2023/05/20 11:59:07;;;;;;;20.40;12.80;;;20.00;61.70;;;;;;5001860;28;20060;-66
2023/05/20 12:01:36;;;;;;;15.30;12.30;;;20.10;61.50;;;;;;4998039;28;20035;-64
2023/05/20 12:04:04;;;;;;;18.95;12.85;;;20.10;61.30;;;;;;5000651;28;20034;-65
2023/05/20 12:06:30;;;;;;;17.65;13.23;;;20.10;61.40;;;;;;4998177;28;20027;-66
2023/05/20 12:08:58;;;;;;;16.35;12.57;;;20.10;61.90;;;;;;4998806;28;20200;-67
2023/05/20 12:11:24;;;;;;;17.23;12.30;;;20.10;61.40;;;;;;4997886;28;20041;-67
2023/05/20 12:13:49;;;;;;;16.17;11.98;;;20.10;61.50;;;;;;4996776;28;20033;-67
2023/05/20 12:16:15;;;;;;;16.30;11.88;;;20.10;61.60;;;;;;4996403;28;20042;-69
2023/05/20 12:18:40;;;;;;;18.10;11.88;;;20.10;61.30;;;;;;4996667;28;20466;-66
2023/05/20 12:21:06;;;;;;;17.77;13.00;;;20.10;61.60;;;;;;4995522;28;20092;-66
2023/05/20 12:23:32;;;;;;;17.27;11.85;;;20.20;61.50;;;;;;4996543;28;20049;-68
2023/05/20 12:25:58;;;;;;;24.38;12.48;;;20.10;61.70;;;;;;5010470;28;20081;-66
2023/05/20 12:28:24;;;;;;;17.92;12.40;;;20.20;62.30;;;;;;4999878;28;20054;-66
2023/05/20 12:30:50;;;;;;;16.60;11.48;;;20.10;61.70;;;;;;4999193;28;20033;-69
2023/05/20 12:33:15;;;;;;;21.75;12.68;;;20.20;61.70;;;;;;5000469;28;20109;-70
2023/05/20 12:35:42;;;;;;;15.00;11.85;;;20.20;61.80;;;;;;4996149;28;20041;-66
2023/05/20 12:38:08;;;;;;;14.90;12.07;;;20.20;61.70;;;;;;4995562;28;20025;-69
2023/05/20 12:40:35;;;;;;;16.75;12.68;;;20.20;61.80;;;;;;4995926;28;20037;-69